Zumbro Falls, MN (55991)

11:41 AM CST on February 11, 2016 (GMT -0600)
Lake Zumbro Postier Point | | Change Station
CLOSE
Current Station
Personal Weather Station
Location: Oronoco, MN
Elevation: 919 ft
Nearby Weather Stations

Elev 919 ft 44.19 °N, 92.48 °W | Updated 9 minutes ago

Clear
Clear
14.9 °F
Feels Like 8 °F
N
4.2
Wind Variable Wind from WNW

Today
High -- | Low -- °F
--% Chance of Precip.
Yesterday
High -- | Low -- °F
Precip. -- in
Pressure 30.31 in
Visibility 10.0 miles
Clouds Clear
Windchill 8 °F
Dew Point -1 °F
Humidity 49%
Rainfall 0.00 in
Snow Depth Not available.
7:15 AM 5:32 PM
Waxing Crescent, 13% visible
METAR K9MN 111732Z AUTO 24005KT 10SM CLR M10/M19 A3031 RMK AO1 T11021186
Pressure 30.31 in
Visibility 10.0 miles
Clouds Clear
Windchill 8 °F
Dew Point -1 °F
Humidity 49%
Rainfall 0.00 in
Snow Depth Not available.
7:15 AM 5:32 PM
Waxing Crescent, 13% visible
METAR K9MN 111732Z AUTO 24005KT 10SM CLR M10/M19 A3031 RMK AO1 T11021186

10-Day Weather Forecast

Almanac

Astronomy

Feb. 11, 2016 Rise Set
Actual Time
Civil Twilight
Nautical Twilight
Astronomical Twilight
Moon
Length of Visible Light
Length of Day
Tomorrow will be .
, % of the Moon is Illuminated

Today's Extremes

State Highs State Lows

Community

WunderPhotos

Upload Photos

1,892,113 photos uploaded!

WunderBlog® & News

Nearby

Air Quality

  Air Quality AQ Index Pollutant
Not available.

Snow Depth

Station Depth Elevation

Earthquake Activity

City Distance Mag. Time & Date
Minimum magnitude displayed is 2.5.

Coastal Water Temperatures

Place Temperature

Stations

Nearby Weather Stations

Station Location Temp. Windchill Dew Point Humidity Wind Precip. Elev Updated Type
                   

Watches & Warnings

There are currently no watches in effect.